Edwards Creek Valley, Nevada Weather observations

Data are for observation ending at time listed.
 Day   Time    Ave.   Ave.  Ave.  Vector   Max.   Stn.    Total    Solar   Ave.  
  of    of     Air    Rel.  Wind   Wind    Wind   Baro.  Precip.   Rad.    Soil  
Year   Day     Temp.  Hum.  Speed  Dir.    Gust   Pres.                    Temp. 
2014   (PST)    F      %     mph   deg.    mph     mb.     in.     W/m2     F   
------------------------------------------------------------------------------
 261   18:30   71.3    30    7.9   346     10.0    840     0.00       0     75.1
 261   18:40   71.6    30    5.7   346      9.4    842     0.00       0     74.8
 261   18:50   69.9    36    4.0   353      6.4    841     0.00       0     74.5
 261   19:00   69.0    39    3.7     2      5.7    841     0.00       0     74.3
 261   19:10   68.3    41    4.2    63      5.5    841     0.00       0     74.0
 261   19:20   68.6    38    5.8    42     12.1    842     0.00       0     73.8
 261   19:30   70.4    32    8.2    33     15.8    842     0.00       0     73.6
 261   19:40   70.6    33    4.4    15      6.7    842     0.00       0     73.3
 261   19:50   69.3    37    3.6    74      6.1    842     0.00       0     73.1
 261   20:00   67.7    43    2.9    20      6.8    842     0.00       0     72.8
 261   20:10   66.8    43    5.1   332      9.3    842     0.00       0     72.5
 261   20:20   66.1    44    4.7   336      9.0    843     0.00       0     72.2
 261   20:30   66.0    42    6.3   336      9.1    843     0.00       0     71.9
 261   20:40   65.8    41    5.3   322      7.9    843     0.00       0     71.5
 261   20:50   65.4    42    3.9   355      6.6    843     0.00       0     71.2
 261   21:00   62.8    52    4.9   129      7.4    843     0.00       0     70.9
 261   21:10   63.6    48    6.1   108     10.1    843     0.00       0     70.6
 261   21:20   64.5    44    6.3    70      9.3    843     0.00       0     70.4
 261   21:30   63.1    49    5.3    82      6.9    843     0.00       0     70.1
 261   21:40   62.2    50    5.9    84      9.6    842     0.00       0     69.9
 261   21:50   62.9    48    7.6    87     11.0    842     0.00       0     69.7
 261   22:00   62.9    48    6.9    94     11.8    843     0.00       0     69.5
 261   22:10   61.8    51    6.3   104      8.1    844     0.00       0     69.2
 261   22:20   61.2    51    6.8    96      8.5    844     0.00       0     69.0
 261   22:30  999.0   999  999.0   999    999.0    999    999.00     999    999.0
 261   22:40  999.0   999  999.0   999    999.0    999    999.00     999    999.0
 261   22:50  999.0   999  999.0   999    999.0    999    999.00     999    999.0
 261   23:00  999.0   999  999.0   999    999.0    999    999.00     999    999.0
 261   23:10  999.0   999  999.0   999    999.0    999    999.00     999    999.0
 261   23:20  999.0   999  999.0   999    999.0    999    999.00     999    999.0
 261   23:30   61.4    44    6.0    71      8.4    844     0.00       0     67.8
 261   23:40   60.8    44    6.4    74      8.8    844     0.00       0     67.6
 261   23:50   60.4    44    6.1    76      8.0    844     0.00       0     67.5
 262    0:00   59.9    44    6.5    79      8.3    844     0.00       0     67.3
 262    0:10   60.1    43    7.0    90      8.8    844     0.00       0     67.1
 262    0:20  999.0   999  999.0   999    999.0    999    999.00     999    999.0
 262    0:30   59.8    43    5.8    76      7.7    845     0.00       0     66.7
 262    0:40   59.3    44    6.4    84      8.8    844     0.00       0     66.4
 262    0:50   58.9    44    6.3    84      7.6    844     0.00       0     66.3
 262    1:00   58.1    46    6.0    84      7.2    844     0.00       0     66.0
 262    1:10   58.0    46    5.8    78      7.0    844     0.00       0     65.8
 262    1:20   57.4    47    5.5    80      6.8    844     0.00       0     65.6
 262    1:30   56.8    48    5.6    84      6.7    844     0.00       0     65.4
 262    1:40   55.9    49    5.7   101      6.8    844     0.00       0     65.2
 262    1:50   55.8    50    5.4    95      6.5    845     0.00       0     65.0
 262    2:00   55.1    51    5.5   101      6.3    845     0.00       0     64.8
 262    2:10   54.9    52    4.8   110      5.5    844     0.00       0     64.6
 262    2:20   55.3    52    4.9   104      5.8    844     0.00       0     64.4
 262    2:30   55.7    52    2.9   132      5.2    844     0.00       0     64.3
 262    2:40   54.6    54    1.3   223      2.6    844     0.00       0     64.1
 262    2:50   54.5    55    2.8   231      5.4    844     0.00       0     64.0
 262    3:00   54.5    54    2.2   241      4.2    844     0.00       0     63.9
 262    3:10   55.4    51    1.7   200      3.4    844     0.00       0     63.7
 262    3:20   55.3    52    2.5   220      3.9    844     0.00       0     63.5
 262    3:30   54.0    55    2.7   221      4.2    845     0.00       0     63.4
 262    3:40   53.6    56    3.9   182      5.3    845     0.00       0     63.2
 262    3:50   52.9    59    5.0   164      6.1    844     0.00       0     63.0
 262    4:00   52.1    60    5.1   144      6.6    844     0.00       0     62.9
 262    4:10   52.0    60    4.3   140      6.1    844     0.00       0     62.7
 262    4:20   52.7    58    2.9   142      7.1    846     0.00       0     62.5
 262    4:30   53.2    58    5.4   148      6.9    846     0.00       0     62.3
 262    4:40   53.6    58    7.0   146      9.0    847     0.00       0     62.2
 262    4:50   53.9    57    7.0   141      8.8    846     0.00       0     62.0
 262    5:00   54.0    57    6.0   143      7.8    846     0.00       0     61.9
 262    5:10   53.8    57    5.7   144      7.3    846     0.00       0     61.7
 262    5:20   53.2    58    5.6   138      6.6    846     0.00       0     61.6
 262    5:30   52.4    59    5.3   131      6.5    846     0.00       1     61.5
 262    5:40   52.8    58    6.1   133      7.7    847     0.00       3     61.3
 262    5:50   53.2    58    5.4   142      7.1    847     0.00      11     61.2
 262    6:00   52.3    60    3.1   287      5.2    847     0.00      27     61.1
 262    6:10   52.9    59    1.5   300      4.0    847     0.00      52     60.9
 262    6:20   54.0    57    0.2   281      0.9    847     0.00      73     60.8
 262    6:30   55.7    53    0.7    76      2.3    847     0.00      96     60.8
 262    6:40   56.8    53    1.4    66      3.1    846     0.00     124     60.8
 262    6:50   58.3    50    0.1   237      1.1    846     0.00     154     60.9
 262    7:00   58.6    49    1.0   267      2.5    846     0.00     183     61.0
 262    7:10   59.4    47    2.5   344      3.6    847     0.00     212     61.1
 262    7:20   60.6    45    2.5   355      4.2    846     0.00     240     61.3
 262    7:30   61.6    44    3.7   335      5.3    847     0.00     273     61.7
 262    7:40   62.5    43    3.3   348      5.3    847     0.00     312     62.0
 262    7:50   64.3    37    3.7    15      5.4    847     0.00     346     62.3
 262    8:00   65.5    35    4.4    36      7.2    847     0.00     380     62.8
 262    8:10   65.9    35    4.3    42      7.3    847     0.00     412     63.3
 262    8:20   66.9    33    4.2    58      7.1    847     0.00     446     63.8
 262    8:30   67.6    32    4.7    46      7.5    847     0.00     480     64.5
 262    8:40   68.1    31    4.5    38      8.2    847     0.00     506     65.2
 262    8:50   68.9    31    4.9    37      9.6    848     0.00     532     65.9
 262    9:00   69.2    30    7.3    29     10.7    847     0.00     558     66.6
 262    9:10   69.7    30    6.7    22     10.2    847     0.00     585     67.3
 262    9:20   70.3    29    7.9    21     12.3    847     0.00     610     68.1
 262    9:30   70.7    29    8.3    20     12.1    847     0.00     635     68.8
 262    9:40   71.6    28    8.1    29     12.3    847     0.00     656     69.5
 262    9:50   72.0    28    8.3    13     11.8    847     0.00     671     70.2
 262   10:00   72.4    27    9.6    14     16.4    847     0.00     690     70.9
 262   10:10   73.3    25   10.2    31     15.7    847     0.00     706     71.6
 262   10:20   73.9    25    9.5    27     17.0    847     0.00     723     72.4
 262   10:30   74.4    25    8.3    10     15.7    847     0.00     737     73.1
 262   10:40   74.9    25    8.6    18     14.6    847     0.00     746     73.7
 262   10:50   75.0    24    8.7     7     15.9    848     0.00     755     74.0
 262   11:00   75.5    24    7.2    18     15.3    848     0.00     766     74.0
 262   11:10   75.7    24    7.7    12     14.0    848     0.00     773     74.0
 262   11:20   76.6    23    7.7    14     17.5    848     0.00     775     74.0
 262   11:30   76.5    23    7.5    34     13.4    847     0.00     777     74.3
 262   11:40   76.8    23    6.4   357     18.6    847     0.00     783     75.0
 262   11:50   77.3    22    8.2     4     14.0    847     0.00     779     76.0
 262   12:00   77.6    22    8.1   342     16.5    846     0.00     772     77.0
 262   12:10   78.8    21    9.2     3     16.3    846     0.00     767     78.0
 262   12:20   78.5    21    6.9   356     14.0    846     0.00     765     79.0
 262   12:30   79.1    20    6.4     7     12.3    845     0.00     757     79.9
 262   12:40   79.7    20    7.4   338     13.7    845     0.00     748     80.8
 262   12:50   79.8    19    5.6    11     11.0    845     0.00     708     81.6
 262   13:00   80.4    18    3.6     5     10.6    845     0.00     744     82.4
 262   13:10   80.9    18    3.7    83      9.1    846     0.00     728     83.1
 262   13:20   81.7    18    5.5     4     14.6    845     0.00     710     83.8
 262   13:30   81.6    18    4.3   336      8.9    846     0.00     697     84.4
 262   13:40   81.6    18    6.7   333     13.4    845     0.00     682     85.0
 262   13:50   81.7    17    5.1   305     10.9    845     0.00     658     85.4
 262   14:00   82.1    17    6.4   324     12.3    845     0.00     643     85.8
 262   14:10   83.2    15    8.3   338     12.9    845     0.00     631     86.1
 262   14:20   83.3    16    9.1   356     14.6    846     0.00     598     86.4
 262   14:30   83.7    16   11.2     6     15.4    846     0.00     578     86.5
 262   14:40   83.4    16   11.3     8     18.7    846     0.00     551     86.7
 262   14:50   83.5    15    9.4     3     16.4    846     0.00     530     86.8
 262   15:00   83.0    15    6.6   348     12.8    846     0.00     332     86.7
 262   15:10   82.5    15    7.4    20     12.2    846     0.00     323     86.6
 262   15:20   83.2    15    6.8    42     12.6    846     0.00     391     86.1
 262   15:30   83.5    15    5.9    36     11.9    846     0.00     396     85.8
 262   15:40   83.6    15   10.0     7     17.0    846     0.00     431     85.5
 262   15:50   83.0    16    7.8     3     13.5    846     0.00     237     85.2
 262   16:00   82.6    16    8.5     4     15.0    846     0.00     209     84.9
 262   16:10   83.0    16    8.8    12     15.3    846     0.00     272     84.5
 262   16:20   82.8    16    8.0   353     13.8    846     0.00     145     84.1
 262   16:30   82.1    17    9.5     8     14.6    846     0.00     115     83.7
 262   16:40   81.3    18    9.5     8     13.9    846     0.00      57     83.3
 262   16:50   80.4    18    9.4     3     15.3    846     0.00      50     82.9
 262   17:00   79.8    19    9.2     0     12.6    846     0.00      46     82.5
 262   17:10   79.2    20    8.2     5     10.7    846     0.00      42     82.1
 262   17:20   78.8    20    6.4     2     10.5    846     0.00      30     81.6
 262   17:30   77.6    22    5.2    11      8.0    846     0.00      29     81.2
 262   17:40   76.9    22    6.3    13     12.1    845     0.00      22     80.8
 262   17:50   76.4    23    6.3     8      8.6    845     0.00      15     80.3
 262   18:00   75.6    23    6.0    10      8.7    845     0.00       4     80.0
 262   18:10   74.5    24    4.4     5      6.0    845     0.00       1     79.6
 262   18:20   73.5    25    4.2     9      5.8    845     0.00       0     79.2

Return to Carson Sink graphs page.


Western Regional Climate Center,wrcc@dri.edu